createdAt,value
2016-12-10T00:00:17.502Z,17.86
2016-12-10T00:00:49.840Z,17.86
2016-12-10T00:01:22.171Z,17.79
2016-12-10T00:01:54.484Z,17.9
2016-12-10T00:02:26.814Z,17.86
2016-12-10T00:02:59.138Z,17.81
2016-12-10T00:03:31.453Z,17.81
2016-12-10T00:04:03.766Z,17.87
2016-12-10T00:04:36.089Z,17.87
2016-12-10T00:05:08.449Z,17.9
2016-12-10T00:05:40.760Z,17.84
2016-12-10T00:06:13.064Z,17.87
2016-12-10T00:06:45.372Z,17.83
2016-12-10T00:07:17.679Z,17.94
2016-12-10T00:07:50.014Z,17.95
2016-12-10T00:08:22.331Z,17.84
2016-12-10T00:08:54.646Z,17.84
2016-12-10T00:09:26.975Z,17.9
2016-12-10T00:09:59.291Z,17.87
2016-12-10T00:10:31.607Z,17.87
2016-12-10T00:11:03.918Z,17.88
2016-12-10T00:11:36.247Z,17.88
2016-12-10T00:12:08.590Z,17.84
2016-12-10T00:12:40.910Z,17.86
2016-12-10T00:13:13.221Z,17.87
2016-12-10T00:13:45.538Z,17.9
2016-12-10T00:14:17.844Z,17.9
2016-12-10T00:14:50.211Z,17.87
2016-12-10T00:15:22.527Z,17.96
2016-12-10T00:15:54.853Z,17.84
2016-12-10T00:16:27.167Z,17.84
2016-12-10T00:16:59.492Z,17.87
2016-12-10T00:17:31.817Z,17.88
2016-12-10T00:18:04.140Z,17.88
2016-12-10T00:18:36.466Z,17.87
2016-12-10T00:19:08.798Z,17.92
2016-12-10T00:19:41.110Z,17.95
2016-12-10T00:20:13.436Z,17.88
2016-12-10T00:20:45.767Z,17.87
2016-12-10T00:21:18.086Z,17.92
2016-12-10T00:21:50.408Z,17.94
2016-12-10T00:22:22.740Z,17.94
2016-12-10T00:22:55.065Z,17.88
2016-12-10T00:23:27.378Z,17.95
2016-12-10T00:23:59.703Z,17.94
2016-12-10T00:24:32.012Z,17.88
2016-12-10T00:25:04.331Z,17.9
2016-12-10T00:25:36.671Z,17.95
2016-12-10T00:26:09.010Z,17.94
2016-12-10T00:26:41.335Z,17.95
2016-12-10T00:27:13.656Z,17.94
2016-12-10T00:27:45.997Z,18.01
2016-12-10T00:28:18.305Z,17.96
2016-12-10T00:28:50.635Z,17.92
2016-12-10T00:29:22.976Z,17.92
2016-12-10T00:29:55.299Z,17.98
2016-12-10T00:30:27.624Z,17.95
2016-12-10T00:30:59.915Z,17.95
2016-12-10T00:31:32.221Z,17.95
2016-12-10T00:32:04.563Z,18.01
2016-12-10T00:32:36.869Z,17.95
2016-12-10T00:33:09.194Z,17.95
2016-12-10T00:33:41.517Z,17.95
2016-12-10T00:34:13.833Z,17.96
2016-12-10T00:34:46.152Z,18.01
2016-12-10T00:35:18.465Z,17.86
2016-12-10T00:35:50.785Z,17.98
2016-12-10T00:36:23.103Z,17.94
2016-12-10T00:36:55.457Z,17.96
2016-12-10T00:37:27.775Z,17.92
2016-12-10T00:38:00.112Z,17.94
2016-12-10T00:38:32.437Z,17.95
2016-12-10T00:39:04.762Z,17.96
2016-12-10T00:39:37.100Z,18.02
2016-12-10T00:40:09.422Z,18.01
2016-12-10T00:40:41.752Z,17.86
2016-12-10T00:41:14.067Z,17.96
2016-12-10T00:41:46.393Z,17.87
2016-12-10T00:42:18.723Z,17.96
2016-12-10T00:42:51.051Z,17.88
2016-12-10T00:43:23.369Z,17.96
2016-12-10T00:43:55.687Z,17.95
2016-12-10T00:44:28.000Z,17.98
2016-12-10T00:45:00.308Z,17.98
2016-12-10T00:45:32.620Z,17.94
2016-12-10T00:46:04.946Z,17.92
2016-12-10T00:46:37.278Z,17.96
2016-12-10T00:47:09.593Z,17.95
2016-12-10T00:47:41.911Z,17.95
2016-12-10T00:48:14.232Z,17.87
2016-12-10T00:48:46.555Z,17.9
2016-12-10T00:49:18.871Z,18.01
2016-12-10T00:49:51.187Z,18.03
2016-12-10T00:50:23.519Z,17.95
2016-12-10T00:50:55.834Z,18.01
2016-12-10T00:51:35.128Z,17.95
2016-12-10T00:52:07.449Z,17.87
2016-12-10T00:52:39.770Z,17.9
2016-12-10T00:53:12.085Z,17.95
2016-12-10T00:53:44.412Z,17.98
2016-12-10T00:54:16.744Z,17.92
2016-12-10T00:54:49.061Z,17.99
2016-12-10T00:55:21.379Z,17.95
2016-12-10T00:55:53.705Z,17.87
2016-12-10T00:56:26.025Z,17.96
2016-12-10T00:56:58.341Z,17.98
2016-12-10T00:57:30.644Z,17.99
2016-12-10T00:58:02.964Z,18.01
2016-12-10T00:58:35.278Z,18.01
2016-12-10T00:59:07.597Z,18.01
2016-12-10T00:59:39.914Z,18.02
2016-12-10T01:00:12.233Z,17.99
2016-12-10T01:00:44.536Z,17.98
2016-12-10T01:01:16.842Z,18.06
2016-12-10T01:01:49.188Z,17.98
2016-12-10T01:02:21.509Z,17.98
2016-12-10T01:02:53.827Z,17.98
2016-12-10T01:03:26.174Z,17.99
2016-12-10T01:03:58.485Z,18.01
2016-12-10T01:04:30.804Z,17.96
2016-12-10T01:05:03.123Z,18.01
2016-12-10T01:05:35.454Z,18.01
2016-12-10T01:06:07.768Z,17.99
2016-12-10T01:06:40.136Z,17.99
2016-12-10T01:07:12.453Z,17.99
2016-12-10T01:07:44.764Z,17.95
2016-12-10T01:08:17.092Z,17.98
2016-12-10T01:08:49.420Z,17.98
2016-12-10T01:09:21.737Z,18.02
2016-12-10T01:09:54.046Z,18.01
2016-12-10T01:10:26.374Z,18.02
2016-12-10T01:10:58.696Z,17.94
2016-12-10T01:11:31.003Z,18.01
2016-12-10T01:12:03.345Z,17.98
2016-12-10T01:12:35.663Z,17.98
2016-12-10T01:13:07.986Z,17.98
2016-12-10T01:13:40.300Z,18.02
2016-12-10T01:14:12.608Z,17.99
2016-12-10T01:14:44.919Z,18.1
2016-12-10T01:15:17.249Z,17.95
2016-12-10T01:15:49.585Z,17.98
2016-12-10T01:16:21.892Z,17.96
2016-12-10T01:16:54.215Z,17.94
2016-12-10T01:17:26.522Z,18.01
2016-12-10T01:17:58.859Z,18.03
2016-12-10T01:18:31.177Z,17.99
2016-12-10T01:19:03.512Z,17.98
2016-12-10T01:19:35.841Z,18.1
2016-12-10T01:20:08.147Z,18.02
2016-12-10T01:20:40.458Z,17.98
2016-12-10T01:21:12.765Z,17.98
2016-12-10T01:21:45.075Z,18.08
2016-12-10T01:22:17.389Z,18.01
2016-12-10T01:22:49.712Z,17.98
2016-12-10T01:23:22.039Z,17.99
2016-12-10T01:23:54.356Z,17.99
2016-12-10T01:24:26.681Z,18.01
2016-12-10T01:24:59.007Z,18.01
2016-12-10T01:25:31.331Z,17.98
2016-12-10T01:26:03.646Z,17.96
2016-12-10T01:26:35.972Z,17.99
2016-12-10T01:27:08.307Z,18.01
2016-12-10T01:27:40.616Z,17.98
2016-12-10T01:28:12.922Z,17.96
2016-12-10T01:28:45.234Z,18.08
2016-12-10T01:29:17.561Z,17.96
2016-12-10T01:29:49.879Z,18.03
2016-12-10T01:30:22.204Z,18.01
2016-12-10T01:30:54.520Z,17.99
2016-12-10T01:31:26.841Z,18.05
2016-12-10T01:31:59.151Z,17.98
2016-12-10T01:32:31.471Z,18.05
2016-12-10T01:33:03.796Z,18.02
2016-12-10T01:33:36.104Z,18.02
2016-12-10T01:34:08.431Z,18.02
2016-12-10T01:34:40.787Z,18.05
2016-12-10T01:35:13.093Z,18.01
2016-12-10T01:35:45.427Z,17.98
2016-12-10T01:36:17.751Z,18.02
2016-12-10T01:36:50.056Z,17.95
2016-12-10T01:37:22.382Z,17.98
2016-12-10T01:37:54.723Z,17.99
2016-12-10T01:38:27.042Z,18.03
2016-12-10T01:38:59.368Z,17.95
2016-12-10T01:39:31.693Z,17.99
2016-12-10T01:40:04.013Z,17.99
2016-12-10T01:40:36.317Z,17.95
2016-12-10T01:41:08.643Z,18.06
2016-12-10T01:41:40.978Z,17.98
2016-12-10T01:42:13.294Z,18.02
2016-12-10T01:42:45.608Z,17.99
2016-12-10T01:43:17.941Z,17.95
2016-12-10T01:43:50.259Z,18.08
2016-12-10T01:44:22.591Z,18.03
2016-12-10T01:44:54.928Z,18.02
2016-12-10T01:45:27.254Z,18.03
2016-12-10T01:45:59.604Z,17.98
2016-12-10T01:46:31.929Z,17.98
2016-12-10T01:47:04.248Z,18.03
2016-12-10T01:47:36.573Z,17.95
2016-12-10T01:48:08.907Z,18.08
2016-12-10T01:48:41.219Z,18.01
2016-12-10T01:49:13.530Z,18.02
2016-12-10T01:49:45.855Z,17.99
2016-12-10T01:50:18.184Z,18.05
2016-12-10T01:50:50.514Z,18.01
2016-12-10T01:51:22.866Z,18.02
2016-12-10T01:51:55.194Z,18.02
2016-12-10T01:52:27.511Z,18.06
2016-12-10T01:52:59.837Z,18.03
2016-12-10T01:53:32.161Z,17.99
2016-12-10T01:54:04.496Z,18.03
2016-12-10T01:54:36.832Z,17.99
2016-12-10T01:55:09.161Z,18.01
2016-12-10T01:55:41.490Z,18.01
2016-12-10T01:56:13.808Z,18.02
2016-12-10T01:56:46.138Z,18.01
2016-12-10T01:57:18.460Z,17.96
2016-12-10T01:57:50.775Z,17.99
2016-12-10T01:58:23.087Z,17.99
2016-12-10T01:58:55.390Z,18.03
2016-12-10T01:59:27.733Z,17.98
2016-12-10T02:00:00.061Z,17.99
2016-12-10T02:00:32.373Z,18.06
2016-12-10T02:01:04.672Z,17.98
2016-12-10T02:01:36.979Z,18.02
2016-12-10T02:02:09.294Z,18.02
2016-12-10T02:02:41.619Z,18.01
2016-12-10T02:03:13.947Z,17.98
2016-12-10T02:03:46.265Z,18.05
2016-12-10T02:04:18.593Z,18.05
2016-12-10T02:04:50.931Z,17.98
2016-12-10T02:05:23.260Z,18.05
2016-12-10T02:05:55.587Z,17.98
2016-12-10T02:06:27.912Z,18.08
2016-12-10T02:07:00.242Z,18.05
2016-12-10T02:07:32.560Z,18.01
2016-12-10T02:08:04.879Z,17.99
2016-12-10T02:08:37.191Z,17.99
2016-12-10T02:09:09.490Z,18.02
2016-12-10T02:09:41.808Z,17.95
2016-12-10T02:10:14.120Z,18.02
2016-12-10T02:10:46.446Z,18.05
2016-12-10T02:11:18.763Z,17.96
2016-12-10T02:11:51.083Z,18.05
2016-12-10T02:12:23.413Z,18.01
2016-12-10T02:12:55.727Z,18.02
2016-12-10T02:13:28.057Z,17.99
2016-12-10T02:14:00.373Z,18.01
2016-12-10T02:14:32.681Z,18.01
2016-12-10T02:15:04.989Z,18.1
2016-12-10T02:15:37.316Z,18.02
2016-12-10T02:16:09.640Z,18.05
2016-12-10T02:16:41.964Z,18.02
2016-12-10T02:17:14.306Z,18.05
2016-12-10T02:17:46.630Z,18.11
2016-12-10T02:18:18.978Z,18.08
2016-12-10T02:18:51.297Z,18.06
2016-12-10T02:19:23.619Z,18.06
2016-12-10T02:19:55.927Z,18.02
2016-12-10T02:20:28.250Z,18.05
2016-12-10T02:21:00.568Z,17.99
2016-12-10T02:21:32.895Z,18.06
2016-12-10T02:22:05.222Z,17.99
2016-12-10T02:22:37.554Z,18.01
2016-12-10T02:23:09.905Z,18.08
2016-12-10T02:23:42.215Z,17.99
2016-12-10T02:24:14.539Z,17.99
2016-12-10T02:24:46.866Z,17.99
2016-12-10T02:25:19.192Z,17.99
2016-12-10T02:25:51.510Z,18.06
2016-12-10T02:26:23.838Z,18.08
2016-12-10T02:26:56.161Z,18.02
2016-12-10T02:27:28.485Z,18.03
2016-12-10T02:28:00.807Z,18.11
2016-12-10T02:28:33.134Z,18.02
2016-12-10T02:29:05.458Z,18.05
2016-12-10T02:29:37.776Z,18.06
2016-12-10T02:30:10.101Z,18.08
2016-12-10T02:30:42.434Z,18.1
2016-12-10T02:31:14.750Z,18.08
2016-12-10T02:31:47.084Z,18.02
2016-12-10T02:32:19.412Z,18.08
2016-12-10T02:32:51.744Z,17.99
2016-12-10T02:33:24.066Z,18.05
2016-12-10T02:33:56.386Z,18.1
2016-12-10T02:34:28.707Z,18.01
2016-12-10T02:35:01.021Z,18.1
2016-12-10T02:35:33.342Z,18.03
2016-12-10T02:36:05.662Z,18.02
2016-12-10T02:36:37.967Z,18.05
2016-12-10T02:37:10.299Z,18.11
2016-12-10T02:37:42.602Z,18.11
2016-12-10T02:38:14.933Z,18.05
2016-12-10T02:38:47.241Z,18.01
2016-12-10T02:39:19.559Z,18.03
2016-12-10T02:39:51.881Z,18.02
2016-12-10T02:40:24.199Z,18.03
2016-12-10T02:40:56.512Z,18.03
2016-12-10T02:41:28.832Z,17.99
2016-12-10T02:42:01.153Z,18.05
2016-12-10T02:42:33.471Z,18.05
2016-12-10T02:43:05.793Z,18.08
2016-12-10T02:43:38.097Z,18.06
2016-12-10T02:44:10.437Z,17.99
2016-12-10T02:44:42.767Z,18.02
2016-12-10T02:45:15.068Z,18.06
2016-12-10T02:45:47.391Z,18.05
2016-12-10T02:46:19.720Z,18.01
2016-12-10T02:46:52.047Z,17.96
2016-12-10T02:47:24.364Z,18.1
2016-12-10T02:47:56.690Z,17.98
2016-12-10T02:48:28.993Z,18.11
2016-12-10T02:49:01.305Z,18.08
2016-12-10T02:49:33.638Z,18.02
2016-12-10T02:50:05.955Z,17.98
2016-12-10T02:50:38.281Z,18.03
2016-12-10T02:51:10.588Z,18.08
2016-12-10T02:51:42.900Z,18.03
2016-12-10T02:52:15.245Z,18.02
2016-12-10T02:52:47.553Z,18.02
2016-12-10T02:53:19.877Z,18.11
2016-12-10T02:53:52.195Z,18.01
2016-12-10T02:54:24.513Z,17.99
2016-12-10T02:54:56.847Z,18.06
2016-12-10T02:55:29.178Z,18.05
2016-12-10T02:56:01.492Z,18.03
2016-12-10T02:56:33.822Z,17.99
2016-12-10T02:57:06.154Z,18.03
2016-12-10T02:57:38.475Z,18.05
2016-12-10T02:58:10.779Z,17.99
2016-12-10T02:58:43.122Z,17.98
2016-12-10T02:59:15.448Z,18.05
2016-12-10T02:59:47.793Z,18.01
2016-12-10T03:00:20.105Z,17.99
2016-12-10T03:00:52.425Z,18.01
2016-12-10T03:01:24.746Z,18.03
2016-12-10T03:01:57.066Z,18.1
2016-12-10T03:02:29.388Z,18.02
2016-12-10T03:03:01.730Z,18.03
2016-12-10T03:03:34.026Z,18.02
2016-12-10T03:04:06.332Z,18.03
2016-12-10T03:04:38.656Z,17.98
2016-12-10T03:05:10.984Z,17.98
2016-12-10T03:05:43.315Z,18.03
2016-12-10T03:06:15.639Z,18.05
2016-12-10T03:06:47.970Z,18.05
2016-12-10T03:07:20.308Z,17.99
2016-12-10T03:07:52.635Z,17.95
2016-12-10T03:08:24.964Z,18.06
2016-12-10T03:08:57.310Z,18.05
2016-12-10T03:09:29.634Z,18.02
2016-12-10T03:10:01.966Z,18.05
2016-12-10T03:10:34.275Z,18.06
2016-12-10T03:11:06.607Z,17.99
2016-12-10T03:11:38.942Z,18.01
2016-12-10T03:12:11.280Z,17.98
2016-12-10T03:12:43.596Z,18.1
2016-12-10T03:13:15.912Z,17.99
2016-12-10T03:13:48.232Z,18.01
2016-12-10T03:14:20.554Z,18.03
2016-12-10T03:14:52.877Z,17.99
2016-12-10T03:15:25.208Z,17.99
2016-12-10T03:15:57.522Z,18.01
2016-12-10T03:16:29.855Z,18.1
2016-12-10T03:17:02.182Z,18.1
2016-12-10T03:17:34.504Z,18.02
2016-12-10T03:18:06.825Z,17.99
2016-12-10T03:18:39.140Z,17.95
2016-12-10T03:19:11.455Z,18.01
2016-12-10T03:19:43.771Z,18.06
2016-12-10T03:20:16.083Z,18.02
2016-12-10T03:20:48.408Z,18.05
2016-12-10T03:21:20.724Z,18.1
2016-12-10T03:21:53.052Z,18.05
2016-12-10T03:22:25.362Z,18.08
2016-12-10T03:22:57.688Z,17.95
2016-12-10T03:23:30.033Z,17.96
2016-12-10T03:24:02.332Z,18.06
2016-12-10T03:24:34.663Z,18.02
2016-12-10T03:25:06.997Z,18.03
2016-12-10T03:25:39.331Z,18.01
2016-12-10T03:26:11.635Z,17.99
2016-12-10T03:26:43.950Z,17.99
2016-12-10T03:27:16.279Z,18.02
2016-12-10T03:27:48.608Z,18.01
2016-12-10T03:28:20.938Z,18.05
2016-12-10T03:28:53.260Z,18.02
2016-12-10T03:29:25.569Z,18.05
2016-12-10T03:29:57.883Z,17.99
2016-12-10T03:30:30.214Z,17.98
2016-12-10T03:31:02.522Z,18.05
2016-12-10T03:31:34.838Z,17.99
2016-12-10T03:32:07.165Z,17.96
2016-12-10T03:32:39.504Z,18.1
2016-12-10T03:33:11.827Z,18.06
2016-12-10T03:33:44.142Z,17.99
2016-12-10T03:34:16.472Z,18.01
2016-12-10T03:34:48.793Z,18.08
2016-12-10T03:35:21.109Z,18.02
2016-12-10T03:35:53.423Z,17.98
2016-12-10T03:36:25.732Z,17.99
2016-12-10T03:36:58.049Z,18.03
2016-12-10T03:37:30.358Z,18.02
2016-12-10T03:38:02.687Z,17.98
2016-12-10T03:38:35.006Z,18.01
2016-12-10T03:39:07.324Z,18.02
2016-12-10T03:39:39.648Z,17.99
2016-12-10T03:40:11.966Z,18.03
2016-12-10T03:40:44.280Z,17.96
2016-12-10T03:41:16.609Z,17.95
2016-12-10T03:41:48.929Z,18.05
2016-12-10T03:42:21.260Z,18.06
2016-12-10T03:42:53.593Z,18.08
2016-12-10T03:43:25.911Z,17.99
2016-12-10T03:43:58.227Z,17.96
2016-12-10T03:44:30.558Z,18.05
2016-12-10T03:45:02.906Z,18.05
2016-12-10T03:45:35.247Z,18.02
2016-12-10T03:46:07.578Z,17.99
2016-12-10T03:46:39.917Z,18.08
2016-12-10T03:47:12.239Z,18.03
2016-12-10T03:47:44.546Z,18.05
2016-12-10T03:48:16.872Z,18.08
2016-12-10T03:48:49.203Z,18.08
2016-12-10T03:49:21.512Z,18.02
2016-12-10T03:49:53.848Z,18.05
2016-12-10T03:50:26.158Z,18.03
2016-12-10T03:50:58.473Z,18.08
2016-12-10T03:51:30.823Z,18.02
2016-12-10T03:52:03.143Z,18.03
2016-12-10T03:52:35.461Z,18.11
2016-12-10T03:53:07.769Z,18.05
2016-12-10T03:53:40.097Z,18.08
2016-12-10T03:54:12.416Z,18.02
2016-12-10T03:54:44.740Z,18.05
2016-12-10T03:55:17.064Z,18.03
2016-12-10T03:55:49.394Z,18.1
2016-12-10T03:56:21.713Z,18.06
2016-12-10T03:56:54.062Z,18.06
2016-12-10T03:57:26.390Z,18.1
2016-12-10T03:57:58.719Z,18.08
2016-12-10T03:58:31.040Z,18.08
2016-12-10T03:59:03.372Z,18.08
2016-12-10T03:59:35.701Z,18.08
2016-12-10T04:00:08.023Z,18.11
2016-12-10T04:00:40.340Z,18.08
2016-12-10T04:01:12.670Z,18.13
2016-12-10T04:01:44.993Z,18.13
2016-12-10T04:02:17.316Z,18.03
2016-12-10T04:02:49.637Z,18.02
2016-12-10T04:03:21.968Z,18.11
2016-12-10T04:03:54.303Z,18.06
2016-12-10T04:04:26.626Z,18.05
2016-12-10T04:04:58.955Z,18.1
2016-12-10T04:05:31.272Z,17.99
2016-12-10T04:06:03.606Z,18.03
2016-12-10T04:06:35.931Z,18.02
2016-12-10T04:07:08.246Z,18.05
2016-12-10T04:07:40.578Z,18.1
2016-12-10T04:08:12.919Z,18.16
2016-12-10T04:08:45.247Z,18.17
2016-12-10T04:09:17.561Z,18.16
2016-12-10T04:09:49.876Z,18.03
2016-12-10T04:10:22.195Z,18.01
2016-12-10T04:10:54.547Z,18.1
2016-12-10T04:11:26.868Z,18.06
2016-12-10T04:11:59.190Z,18.11
2016-12-10T04:12:31.514Z,18.01
2016-12-10T04:13:03.828Z,18.03
2016-12-10T04:13:36.128Z,18.14
2016-12-10T04:14:08.459Z,18.05
2016-12-10T04:14:40.781Z,18.06
2016-12-10T04:15:13.095Z,18.08
2016-12-10T04:15:45.432Z,18.14
2016-12-10T04:16:17.750Z,18.02
2016-12-10T04:16:50.071Z,18.16
2016-12-10T04:17:22.388Z,18.11
2016-12-10T04:17:54.719Z,18.26
2016-12-10T04:18:27.087Z,18.11
2016-12-10T04:18:59.401Z,18.05
2016-12-10T04:19:31.742Z,18.03
2016-12-10T04:20:04.058Z,18.1
2016-12-10T04:20:36.387Z,18.11
2016-12-10T04:21:08.697Z,18.11
2016-12-10T04:21:41.039Z,18.08
2016-12-10T04:22:13.369Z,18.14
2016-12-10T04:22:45.676Z,18.16
2016-12-10T04:23:18.014Z,18.1
2016-12-10T04:23:50.328Z,18.17
2016-12-10T04:24:22.664Z,18.02
2016-12-10T04:24:54.983Z,18.21
2016-12-10T04:25:27.320Z,18.17
2016-12-10T04:25:59.632Z,18.1
2016-12-10T04:26:31.963Z,18.11
2016-12-10T04:27:04.277Z,18.14
2016-12-10T04:27:36.600Z,18.2
2016-12-10T04:28:08.958Z,18.17
2016-12-10T04:28:41.288Z,18.17
2016-12-10T04:29:13.619Z,18.11
2016-12-10T04:29:45.947Z,18.2
2016-12-10T04:30:18.274Z,18.17
2016-12-10T04:30:50.601Z,18.19
2016-12-10T04:31:22.908Z,18.21
2016-12-10T04:31:55.220Z,18.23
2016-12-10T04:32:27.546Z,18.06
2016-12-10T04:32:59.860Z,18.2
2016-12-10T04:33:32.187Z,18.14
2016-12-10T04:34:04.497Z,18.19
2016-12-10T04:34:36.810Z,18.16
2016-12-10T04:35:09.126Z,18.14
2016-12-10T04:35:41.472Z,18.24
2016-12-10T04:36:13.782Z,18.16
2016-12-10T04:36:46.090Z,18.21
2016-12-10T04:37:18.398Z,18.21
2016-12-10T04:37:50.725Z,18.17
2016-12-10T04:38:23.065Z,18.14
2016-12-10T04:38:55.372Z,18.2
2016-12-10T04:39:27.680Z,18.16
2016-12-10T04:40:00.012Z,18.14
2016-12-10T04:40:32.330Z,18.19
2016-12-10T04:41:04.653Z,18.16
2016-12-10T04:41:37.008Z,18.17
2016-12-10T04:42:09.330Z,18.13
2016-12-10T04:42:41.657Z,18.2
2016-12-10T04:43:13.986Z,18.21
2016-12-10T04:43:46.301Z,18.17
2016-12-10T04:44:18.631Z,18.24
2016-12-10T04:44:50.953Z,18.17
2016-12-10T04:45:23.265Z,18.14
2016-12-10T04:45:55.597Z,18.13
2016-12-10T04:46:27.960Z,18.21
2016-12-10T04:47:00.285Z,18.19
2016-12-10T04:47:32.638Z,18.1
2016-12-10T04:48:04.962Z,18.16
2016-12-10T04:48:37.303Z,18.16
2016-12-10T04:49:09.655Z,18.26
2016-12-10T04:49:41.961Z,18.16
2016-12-10T04:50:14.310Z,18.17
2016-12-10T04:50:46.624Z,18.19
2016-12-10T04:51:18.941Z,18.14
2016-12-10T04:51:51.268Z,18.26
2016-12-10T04:52:23.596Z,18.17
2016-12-10T04:52:55.917Z,18.2
2016-12-10T04:53:28.250Z,18.21
2016-12-10T04:54:00.554Z,18.21
2016-12-10T04:54:32.866Z,18.17
2016-12-10T04:55:05.181Z,18.23
2016-12-10T04:55:37.498Z,18.19
2016-12-10T04:56:09.838Z,18.19
2016-12-10T04:56:42.156Z,18.21
2016-12-10T04:57:14.472Z,18.21
2016-12-10T04:57:46.807Z,18.17
2016-12-10T04:58:19.112Z,18.06
2016-12-10T04:58:51.440Z,18.16
2016-12-10T04:59:23.766Z,18.24
2016-12-10T04:59:56.130Z,18.23
2016-12-10T05:00:28.441Z,18.19
2016-12-10T05:01:00.750Z,18.2
2016-12-10T05:01:33.068Z,18.14
2016-12-10T05:02:05.375Z,18.2
2016-12-10T05:02:37.687Z,18.27
2016-12-10T05:03:10.018Z,18.1
2016-12-10T05:03:42.351Z,18.2
2016-12-10T05:04:14.659Z,18.23
2016-12-10T05:04:46.987Z,18.1
2016-12-10T05:05:19.333Z,18.1
2016-12-10T05:05:51.633Z,18.26
2016-12-10T05:06:23.964Z,18.14
2016-12-10T05:06:56.298Z,18.19
2016-12-10T05:07:28.619Z,18.17
2016-12-10T05:08:00.935Z,18.21
2016-12-10T05:08:34.095Z,18.2
2016-12-10T05:09:06.416Z,18.14
2016-12-10T05:09:38.731Z,18.14
2016-12-10T05:10:11.067Z,18.17
2016-12-10T05:10:43.392Z,18.16
2016-12-10T05:11:15.725Z,18.17
2016-12-10T05:11:48.032Z,18.14
2016-12-10T05:12:20.360Z,18.08
2016-12-10T05:12:52.687Z,18.2
2016-12-10T05:13:25.004Z,18.17
2016-12-10T05:13:57.326Z,18.19
2016-12-10T05:14:29.648Z,18.08
2016-12-10T05:15:01.970Z,18.1
2016-12-10T05:15:34.336Z,18.16
2016-12-10T05:16:06.692Z,18.11
2016-12-10T05:16:39.003Z,18.16
2016-12-10T05:17:11.310Z,18.21
2016-12-10T05:17:43.635Z,18.21
2016-12-10T05:18:15.941Z,18.14
2016-12-10T05:18:48.249Z,18.14
2016-12-10T05:19:20.557Z,18.16
2016-12-10T05:19:52.878Z,18.05
2016-12-10T05:20:25.202Z,18.08
2016-12-10T05:20:57.520Z,18.16
2016-12-10T05:21:29.839Z,18.17
2016-12-10T05:22:02.159Z,18.02
2016-12-10T05:22:34.488Z,18.16
2016-12-10T05:23:06.801Z,18.06
2016-12-10T05:23:39.106Z,18.05
2016-12-10T05:24:11.423Z,18.14
2016-12-10T05:24:43.722Z,18.17
2016-12-10T05:25:16.028Z,18.19
2016-12-10T05:25:48.358Z,18.1
2016-12-10T05:26:20.662Z,18.19
2016-12-10T05:26:52.995Z,18.05
2016-12-10T05:27:25.312Z,18.21
2016-12-10T05:27:57.634Z,18.03
2016-12-10T05:28:29.949Z,18.03
2016-12-10T05:29:02.278Z,18.17
2016-12-10T05:29:34.609Z,18.17
2016-12-10T05:30:06.921Z,18.02
2016-12-10T05:30:39.241Z,18.05
2016-12-10T05:31:11.564Z,18.05
2016-12-10T05:31:43.927Z,18.13
2016-12-10T05:32:16.233Z,18.05
2016-12-10T05:32:48.538Z,18.1
2016-12-10T05:33:20.847Z,18.06
2016-12-10T05:33:53.167Z,18.1
2016-12-10T05:34:25.485Z,18.03
2016-12-10T05:34:57.805Z,18.1
2016-12-10T05:35:30.131Z,18.17
2016-12-10T05:36:02.479Z,18.06
2016-12-10T05:36:34.799Z,18.08
2016-12-10T05:37:07.133Z,18.19
2016-12-10T05:37:39.449Z,18.06
2016-12-10T05:38:11.774Z,18.02
2016-12-10T05:38:44.100Z,18.05
2016-12-10T05:39:16.412Z,18.05
2016-12-10T05:39:48.736Z,18.06
2016-12-10T05:40:21.055Z,18.06
2016-12-10T05:40:53.388Z,18.03
2016-12-10T05:41:25.704Z,18.05
2016-12-10T05:41:58.034Z,18.03
2016-12-10T05:42:30.364Z,18.06
2016-12-10T05:43:02.665Z,18.06
2016-12-10T05:43:35.001Z,18.03
2016-12-10T05:44:07.335Z,18.21
2016-12-10T05:44:39.651Z,18.2
2016-12-10T05:45:11.975Z,18.2
2016-12-10T05:45:44.296Z,18.16
2016-12-10T05:46:16.615Z,18.16
2016-12-10T05:46:48.936Z,18.08
2016-12-10T05:47:21.252Z,18.08
2016-12-10T05:47:53.583Z,18.1
2016-12-10T05:48:25.901Z,18.05
2016-12-10T05:48:58.238Z,18.1
2016-12-10T05:49:30.554Z,18.14
2016-12-10T05:50:02.871Z,18.05
2016-12-10T05:50:35.211Z,18.19
2016-12-10T05:51:07.525Z,18.1
2016-12-10T05:51:39.869Z,18.06
2016-12-10T05:52:12.191Z,18.03
2016-12-10T05:52:44.492Z,18.05
2016-12-10T05:53:16.816Z,18.06
2016-12-10T05:53:49.169Z,18.08
2016-12-10T05:54:21.488Z,18.05
2016-12-10T05:54:53.841Z,18.06
2016-12-10T05:55:26.168Z,18.05
2016-12-10T05:55:58.487Z,18.02
2016-12-10T05:56:30.808Z,18.02
2016-12-10T05:57:03.132Z,18.05
2016-12-10T05:57:35.477Z,18.06
2016-12-10T05:58:07.796Z,18.06
2016-12-10T05:58:40.127Z,18.03
2016-12-10T05:59:12.480Z,18.06
2016-12-10T05:59:44.797Z,18.03
2016-12-10T06:00:17.118Z,18.11
2016-12-10T06:00:50.089Z,18.01
2016-12-10T06:01:22.456Z,18.03
2016-12-10T06:01:54.788Z,18.02
2016-12-10T06:02:27.119Z,18.11
2016-12-10T06:02:59.427Z,18.17
2016-12-10T06:03:31.745Z,18.1
2016-12-10T06:04:04.073Z,18.11
2016-12-10T06:04:36.397Z,18.05
2016-12-10T06:05:08.720Z,18.03
2016-12-10T06:05:41.027Z,18.1
2016-12-10T06:06:13.341Z,18.1
2016-12-10T06:06:45.659Z,18.1
2016-12-10T06:07:17.968Z,18.1
2016-12-10T06:07:50.279Z,18.02
2016-12-10T06:08:22.605Z,18.13
2016-12-10T06:08:54.918Z,18.05
2016-12-10T06:09:27.233Z,18.03
2016-12-10T06:09:59.556Z,18.02
2016-12-10T06:10:31.879Z,18.05
2016-12-10T06:11:04.200Z,18.05
2016-12-10T06:11:36.499Z,18.02
2016-12-10T06:12:08.817Z,18.13
2016-12-10T06:12:41.128Z,18.14
2016-12-10T06:13:13.436Z,18.06
2016-12-10T06:13:45.764Z,18.08
2016-12-10T06:14:18.089Z,18.01
2016-12-10T06:14:50.409Z,18.05
2016-12-10T06:15:22.706Z,18.03
2016-12-10T06:15:55.064Z,18.13
2016-12-10T06:16:27.382Z,18.1
2016-12-10T06:16:59.707Z,18.06
2016-12-10T06:17:32.033Z,18.02
2016-12-10T06:18:04.346Z,18.06
2016-12-10T06:18:36.680Z,18.06
2016-12-10T06:19:09.025Z,18.1
2016-12-10T06:19:41.327Z,18.08
2016-12-10T06:20:13.661Z,18.1
2016-12-10T06:20:45.971Z,18.03
2016-12-10T06:21:18.283Z,18.03
2016-12-10T06:21:50.610Z,18.1
2016-12-10T06:22:22.924Z,18.14
2016-12-10T06:22:55.246Z,18.03
2016-12-10T06:23:27.606Z,18.03
2016-12-10T06:23:59.923Z,18.08
2016-12-10T06:24:32.252Z,18.1
2016-12-10T06:25:04.570Z,18.1
2016-12-10T06:25:36.896Z,18.13
2016-12-10T06:26:09.232Z,18.1
2016-12-10T06:26:41.523Z,18.05
2016-12-10T06:27:13.831Z,18.06
2016-12-10T06:27:46.143Z,18.1
2016-12-10T06:28:18.464Z,18.05
2016-12-10T06:28:50.803Z,18.05
2016-12-10T06:29:23.113Z,18.17
2016-12-10T06:29:55.437Z,18.11
2016-12-10T06:30:27.767Z,18.01
2016-12-10T06:31:00.097Z,18.05
2016-12-10T06:31:32.414Z,18.05
2016-12-10T06:32:04.732Z,17.99
2016-12-10T06:32:37.064Z,18.05
2016-12-10T06:33:09.382Z,18.05
2016-12-10T06:33:41.716Z,18.05
2016-12-10T06:34:14.043Z,18.02
2016-12-10T06:34:46.357Z,18.08
2016-12-10T06:35:18.685Z,18.05
2016-12-10T06:35:50.995Z,18.02
2016-12-10T06:36:23.308Z,18.01
2016-12-10T06:36:55.619Z,17.99
2016-12-10T06:37:27.933Z,18.1
2016-12-10T06:38:00.244Z,18.1
2016-12-10T06:38:32.566Z,18.01
2016-12-10T06:39:04.879Z,17.99
2016-12-10T06:39:37.236Z,17.98
2016-12-10T06:40:09.545Z,18.03
2016-12-10T06:40:41.865Z,18.01
2016-12-10T06:41:14.169Z,18.05
2016-12-10T06:41:46.489Z,18.01
2016-12-10T06:42:18.843Z,18.03
2016-12-10T06:42:51.179Z,17.99
2016-12-10T06:43:23.503Z,18.02
2016-12-10T06:43:55.812Z,18.05
2016-12-10T06:44:28.142Z,18.05
2016-12-10T06:45:00.493Z,18.05
2016-12-10T06:45:32.820Z,18.01
2016-12-10T06:46:05.139Z,18.06
2016-12-10T06:46:37.459Z,18.02
2016-12-10T06:47:09.783Z,18.03
2016-12-10T06:47:42.085Z,18.06
2016-12-10T06:48:14.394Z,17.99
2016-12-10T06:48:46.720Z,18.02
2016-12-10T06:49:19.044Z,17.99
2016-12-10T06:49:51.361Z,18.02
2016-12-10T06:50:23.690Z,17.99
2016-12-10T06:50:56.006Z,18.03
2016-12-10T06:51:28.330Z,17.95
2016-12-10T06:52:00.656Z,17.98
2016-12-10T06:52:32.988Z,18.06
2016-12-10T06:53:05.303Z,17.98
2016-12-10T06:53:37.618Z,18.01
2016-12-10T06:54:09.943Z,17.95
2016-12-10T06:54:42.270Z,18.01
2016-12-10T06:55:14.567Z,18.03
2016-12-10T06:55:46.889Z,18.01
2016-12-10T06:56:19.214Z,17.96
2016-12-10T06:56:51.523Z,18.01
2016-12-10T06:57:23.844Z,17.99